createdAt,value
2023-02-25T00:00:24.325Z,93.02
2023-02-25T00:03:09.307Z,93.01
2023-02-25T00:05:40.578Z,93.04
2023-02-25T00:08:09.932Z,93.04
2023-02-25T00:10:39.142Z,93.08
2023-02-25T00:13:18.051Z,93.13
2023-02-25T00:15:48.273Z,93.11
2023-02-25T00:18:17.721Z,93.15
2023-02-25T00:20:46.066Z,93.14
2023-02-25T00:23:14.682Z,93.18
2023-02-25T00:25:42.836Z,93.20
2023-02-25T00:28:18.083Z,93.23
2023-02-25T00:30:46.898Z,93.25
2023-02-25T00:33:15.417Z,93.26
2023-02-25T00:35:45.900Z,93.30
2023-02-25T00:38:16.229Z,93.28
2023-02-25T00:40:46.485Z,93.25
2023-02-25T00:43:16.735Z,93.33
2023-02-25T00:45:45.013Z,93.35
2023-02-25T00:48:13.956Z,93.09
2023-02-25T00:50:42.732Z,93.01
2023-02-25T00:53:15.063Z,92.88
2023-02-25T00:55:44.140Z,92.80
2023-02-25T00:58:12.553Z,93.04
2023-02-25T01:00:51.689Z,93.25
2023-02-25T01:03:22.292Z,93.47
2023-02-25T01:05:51.474Z,93.73
2023-02-25T01:08:20.898Z,94.01
2023-02-25T01:10:49.277Z,94.20
2023-02-25T01:13:18.085Z,94.39
2023-02-25T01:15:48.010Z,94.50
2023-02-25T01:18:20.637Z,94.62
2023-02-25T01:20:49.232Z,94.72
2023-02-25T01:23:18.732Z,94.75
2023-02-25T01:25:47.828Z,94.80
2023-02-25T01:28:17.423Z,94.85
2023-02-25T01:30:49.033Z,94.89
2023-02-25T01:33:17.586Z,94.89
2023-02-25T01:35:45.891Z,94.81
2023-02-25T01:38:15.458Z,94.81
2023-02-25T01:40:44.912Z,94.72
2023-02-25T01:43:16.580Z,94.65
2023-02-25T01:45:50.347Z,94.58
2023-02-25T01:48:20.261Z,94.52
2023-02-25T01:50:52.808Z,94.45
2023-02-25T01:53:26.320Z,94.43
2023-02-25T01:55:57.920Z,94.42
2023-02-25T01:58:27.678Z,94.46
2023-02-25T02:01:00.302Z,94.51
2023-02-25T02:03:32.437Z,94.49
2023-02-25T02:06:05.119Z,94.46
2023-02-25T02:08:34.719Z,94.42
2023-02-25T02:11:03.313Z,94.41
2023-02-25T02:13:35.489Z,94.42
2023-02-25T02:16:20.168Z,94.40
2023-02-25T02:18:52.991Z,94.39
2023-02-25T02:21:33.811Z,94.37
2023-02-25T02:24:33.961Z,94.25
2023-02-25T02:27:03.994Z,94.17
2023-02-25T02:29:57.050Z,93.97
2023-02-25T02:32:33.119Z,93.84
2023-02-25T02:35:07.162Z,93.72
2023-02-25T02:37:41.774Z,93.63
2023-02-25T02:40:30.313Z,93.58
2023-02-25T02:43:09.090Z,93.56
2023-02-25T02:45:42.515Z,93.45
2023-02-25T02:48:15.524Z,93.34
2023-02-25T02:50:46.880Z,93.13
2023-02-25T02:53:19.100Z,93.06
2023-02-25T02:55:49.688Z,92.96
2023-02-25T02:58:22.206Z,92.87
2023-02-25T03:00:56.906Z,92.88
2023-02-25T03:03:36.182Z,92.83
2023-02-25T03:06:07.338Z,92.75
2023-02-25T03:08:40.864Z,92.80
2023-02-25T03:11:09.194Z,92.72
2023-02-25T03:13:39.356Z,92.64
2023-02-25T03:16:12.821Z,92.54
2023-02-25T03:18:45.587Z,92.48
2023-02-25T03:21:19.634Z,92.48
2023-02-25T03:23:48.765Z,92.36
2023-02-25T03:26:23.852Z,92.26
2023-02-25T03:28:54.252Z,92.13
2023-02-25T03:31:29.079Z,92.01
2023-02-25T03:34:04.998Z,92.05
2023-02-25T03:36:38.800Z,91.99
2023-02-25T03:39:11.399Z,92.00
2023-02-25T03:41:47.269Z,91.93
2023-02-25T03:44:18.620Z,91.94
2023-02-25T03:46:48.794Z,91.86
2023-02-25T03:49:25.604Z,91.85
2023-02-25T03:51:57.305Z,91.83
2023-02-25T03:54:31.989Z,91.86
2023-02-25T03:57:00.609Z,91.92
2023-02-25T03:59:30.037Z,91.97
2023-02-25T04:02:00.752Z,92.04
2023-02-25T04:04:32.872Z,92.02
2023-02-25T04:07:02.066Z,92.04
2023-02-25T04:09:30.576Z,92.18
2023-02-25T04:12:00.486Z,92.28
2023-02-25T04:14:29.530Z,92.43
2023-02-25T04:16:59.263Z,92.59
2023-02-25T04:19:33.368Z,92.76
2023-02-25T04:22:06.098Z,92.87
2023-02-25T04:24:34.346Z,92.99
2023-02-25T04:27:03.335Z,93.13
2023-02-25T04:29:31.960Z,93.24
2023-02-25T04:32:02.028Z,93.31
2023-02-25T04:34:30.376Z,93.40
2023-02-25T04:36:58.632Z,93.50
2023-02-25T04:39:28.771Z,93.59
2023-02-25T04:41:57.086Z,93.64
2023-02-25T04:44:27.164Z,93.70
2023-02-25T04:46:57.468Z,93.72
2023-02-25T04:49:26.310Z,93.63
2023-02-25T04:51:56.333Z,93.60
2023-02-25T04:54:29.295Z,93.66
2023-02-25T04:56:59.700Z,93.61
2023-02-25T04:59:35.439Z,93.59
2023-02-25T05:02:06.115Z,93.52
2023-02-25T05:04:37.658Z,93.50
2023-02-25T05:07:08.741Z,93.47
2023-02-25T05:09:37.658Z,93.45
2023-02-25T05:12:08.357Z,93.38
2023-02-25T05:14:38.722Z,93.42
2023-02-25T05:17:07.192Z,93.46
2023-02-25T05:19:35.337Z,93.50
2023-02-25T05:22:04.410Z,93.56
2023-02-25T05:24:34.600Z,93.50
2023-02-25T05:27:08.728Z,93.44
2023-02-25T05:29:38.323Z,93.41
2023-02-25T05:32:09.412Z,93.50
2023-02-25T05:34:38.617Z,93.56
2023-02-25T05:37:09.165Z,93.61
2023-02-25T05:39:37.811Z,93.68
2023-02-25T05:42:07.669Z,93.75
2023-02-25T05:44:36.826Z,93.86
2023-02-25T05:47:10.265Z,93.89
2023-02-25T05:49:39.293Z,94.01
2023-02-25T05:52:07.742Z,94.08
2023-02-25T05:54:36.233Z,94.14
2023-02-25T05:57:05.066Z,94.28
2023-02-25T05:59:36.922Z,94.34
2023-02-25T06:02:07.060Z,94.43
2023-02-25T06:04:35.686Z,94.56
2023-02-25T06:07:04.536Z,94.67
2023-02-25T06:09:35.234Z,94.76
2023-02-25T06:12:03.807Z,94.92
2023-02-25T06:14:34.849Z,95.03
2023-02-25T06:17:05.006Z,95.10
2023-02-25T06:19:36.489Z,95.15
2023-02-25T06:22:05.399Z,95.26
2023-02-25T06:24:37.399Z,95.32
2023-02-25T06:27:07.161Z,95.43
2023-02-25T06:29:35.755Z,95.48
2023-02-25T06:32:05.521Z,95.55
2023-02-25T06:34:37.054Z,95.62
2023-02-25T06:37:05.390Z,95.68
2023-02-25T06:39:35.822Z,95.74
2023-02-25T06:42:04.419Z,95.80
2023-02-25T06:44:33.093Z,95.83
2023-02-25T06:47:01.452Z,95.86
2023-02-25T06:49:30.840Z,95.88
2023-02-25T06:52:01.212Z,95.89
2023-02-25T06:54:29.551Z,95.85
2023-02-25T06:56:57.975Z,95.81
2023-02-25T06:59:26.253Z,95.77
2023-02-25T07:01:54.937Z,95.75
2023-02-25T07:04:28.798Z,95.70
2023-02-25T07:06:58.642Z,95.67
2023-02-25T07:09:29.124Z,95.60
2023-02-25T07:11:57.849Z,95.63
2023-02-25T07:14:30.459Z,95.63
2023-02-25T07:16:58.750Z,95.62
2023-02-25T07:19:27.268Z,95.58
2023-02-25T07:21:56.823Z,95.58
2023-02-25T07:24:27.301Z,95.55
2023-02-25T07:26:57.117Z,95.56
2023-02-25T07:29:26.815Z,95.62
2023-02-25T07:31:56.674Z,95.58
2023-02-25T07:34:25.526Z,95.57
2023-02-25T07:36:54.144Z,95.59
2023-02-25T07:39:22.724Z,95.52
2023-02-25T07:41:51.484Z,95.51
2023-02-25T07:44:24.050Z,95.54
2023-02-25T07:46:53.438Z,95.53
2023-02-25T07:49:21.986Z,95.40
2023-02-25T07:51:50.364Z,95.42
2023-02-25T07:54:21.604Z,95.35
2023-02-25T07:56:57.264Z,95.36
2023-02-25T07:59:27.154Z,95.45
2023-02-25T08:01:55.498Z,95.41
2023-02-25T08:04:24.869Z,95.38
2023-02-25T08:06:54.135Z,95.39
2023-02-25T08:09:22.598Z,95.42
2023-02-25T08:11:51.734Z,95.40
2023-02-25T08:14:22.183Z,95.35
2023-02-25T08:16:53.330Z,95.39
2023-02-25T08:19:23.820Z,95.29
2023-02-25T08:21:52.011Z,95.25
2023-02-25T08:24:20.981Z,95.29
2023-02-25T08:26:50.415Z,95.26
2023-02-25T08:29:18.828Z,95.10
2023-02-25T08:31:49.323Z,94.94
2023-02-25T08:34:19.313Z,94.75
2023-02-25T08:36:47.731Z,94.71
2023-02-25T08:39:20.032Z,94.63
2023-02-25T08:41:48.420Z,94.45
2023-02-25T08:44:19.888Z,94.33
2023-02-25T08:46:48.083Z,94.12
2023-02-25T08:49:16.162Z,94.11
2023-02-25T08:51:47.233Z,93.93
2023-02-25T08:54:19.295Z,93.72
2023-02-25T08:56:47.836Z,93.61
2023-02-25T08:59:16.657Z,94.96
2023-02-25T09:01:49.296Z,95.20
2023-02-25T09:04:21.674Z,95.20
2023-02-25T09:06:58.649Z,95.04
2023-02-25T09:09:28.719Z,93.66
2023-02-25T09:11:57.323Z,93.37
2023-02-25T09:14:25.813Z,93.29
2023-02-25T09:16:54.863Z,93.09
2023-02-25T09:19:26.026Z,92.70
2023-02-25T09:21:57.280Z,92.52
2023-02-25T09:24:26.866Z,92.38
2023-02-25T09:26:54.876Z,91.98
2023-02-25T09:29:23.693Z,91.94
2023-02-25T09:31:54.024Z,92.16
2023-02-25T09:34:22.362Z,92.30
2023-02-25T09:36:52.330Z,92.16
2023-02-25T09:39:21.749Z,92.10
2023-02-25T09:41:54.578Z,92.03
2023-02-25T09:44:27.186Z,91.88
2023-02-25T09:46:59.244Z,91.53
2023-02-25T09:49:35.591Z,91.59
2023-02-25T09:52:08.580Z,91.58
2023-02-25T09:54:44.920Z,91.63
2023-02-25T09:57:19.291Z,91.87
2023-02-25T09:59:50.373Z,91.65
2023-02-25T10:02:25.856Z,91.21
2023-02-25T10:05:05.235Z,91.16
2023-02-25T10:07:56.572Z,91.35
2023-02-25T10:10:29.184Z,91.07
2023-02-25T10:13:03.949Z,90.56
2023-02-25T10:15:52.496Z,90.16
2023-02-25T10:18:34.155Z,91.00
2023-02-25T10:21:13.070Z,91.10
2023-02-25T10:23:52.517Z,90.48
2023-02-25T10:26:25.015Z,89.86
2023-02-25T10:28:56.590Z,89.41
2023-02-25T10:31:25.778Z,89.16
2023-02-25T10:33:56.729Z,89.04
2023-02-25T10:36:29.092Z,89.36
2023-02-25T10:38:57.068Z,89.12
2023-02-25T10:41:30.724Z,89.57
2023-02-25T10:43:59.022Z,90.12
2023-02-25T10:46:30.233Z,90.42
2023-02-25T10:49:01.335Z,90.39
2023-02-25T10:51:29.947Z,88.99
2023-02-25T10:54:07.857Z,88.96
2023-02-25T10:56:45.956Z,88.88
2023-02-25T10:59:30.003Z,87.94
2023-02-25T11:02:02.217Z,85.84
2023-02-25T11:04:39.470Z,85.42
2023-02-25T11:07:26.688Z,85.02
2023-02-25T11:10:16.390Z,85.49
2023-02-25T11:12:48.928Z,86.10
2023-02-25T11:15:46.094Z,86.95
2023-02-25T11:18:23.550Z,87.34
2023-02-25T11:20:54.606Z,87.65
2023-02-25T11:23:28.351Z,88.34
2023-02-25T11:25:57.830Z,88.75
2023-02-25T11:28:31.966Z,89.59
2023-02-25T11:31:11.091Z,90.21
2023-02-25T11:33:43.676Z,90.53
2023-02-25T11:36:12.658Z,90.77
2023-02-25T11:38:43.300Z,90.97
2023-02-25T11:41:21.052Z,91.09
2023-02-25T11:43:51.596Z,91.23
2023-02-25T11:46:23.986Z,90.72
2023-02-25T11:48:58.786Z,89.68
2023-02-25T11:51:29.664Z,88.94
2023-02-25T11:54:06.111Z,89.34
2023-02-25T11:56:38.435Z,89.93
2023-02-25T11:59:37.260Z,90.47
2023-02-25T12:02:22.589Z,91.02
2023-02-25T12:05:18.706Z,91.16
2023-02-25T12:08:12.455Z,91.58
2023-02-25T12:11:24.944Z,91.95
2023-02-25T12:14:09.544Z,92.09
2023-02-25T12:17:01.067Z,91.82
2023-02-25T12:20:05.648Z,91.92
2023-02-25T12:22:59.662Z,91.46
2023-02-25T12:25:33.960Z,91.72
2023-02-25T12:28:40.999Z,91.56
2023-02-25T12:31:38.102Z,91.72
2023-02-25T12:34:34.198Z,91.04
2023-02-25T12:37:16.307Z,91.13
2023-02-25T12:40:04.371Z,91.17
2023-02-25T12:42:49.628Z,91.03
2023-02-25T12:45:33.338Z,90.72
2023-02-25T12:48:31.601Z,90.20
2023-02-25T12:51:17.432Z,89.82
2023-02-25T12:53:55.471Z,90.10
2023-02-25T12:56:42.596Z,90.17
2023-02-25T12:59:33.836Z,90.11
2023-02-25T13:02:19.899Z,89.31
2023-02-25T13:05:29.897Z,89.35
2023-02-25T13:08:15.630Z,88.61
2023-02-25T13:10:58.518Z,87.66
2023-02-25T13:13:46.777Z,86.93
2023-02-25T13:16:25.637Z,86.68
2023-02-25T13:19:22.138Z,86.22
2023-02-25T13:22:04.224Z,86.74
2023-02-25T13:24:50.771Z,87.05
2023-02-25T13:27:32.269Z,87.20
2023-02-25T13:30:27.084Z,87.14
2023-02-25T13:33:07.403Z,87.68
2023-02-25T13:35:45.644Z,87.68
2023-02-25T13:38:25.070Z,88.17
2023-02-25T13:41:29.667Z,88.76
2023-02-25T13:44:17.523Z,89.03
2023-02-25T13:47:01.504Z,88.64
2023-02-25T13:49:49.176Z,88.65
2023-02-25T13:52:29.647Z,88.48
2023-02-25T13:55:11.464Z,88.00
2023-02-25T13:57:54.110Z,87.47
2023-02-25T14:00:57.824Z,87.28
2023-02-25T14:03:52.645Z,86.15
2023-02-25T14:06:31.874Z,84.94
2023-02-25T14:09:15.580Z,84.52
2023-02-25T14:11:57.737Z,84.65
2023-02-25T14:14:58.215Z,84.30
2023-02-25T14:18:13.461Z,84.00
2023-02-25T14:20:51.431Z,83.63
2023-02-25T14:23:31.440Z,84.30
2023-02-25T14:26:23.060Z,83.65
2023-02-25T14:29:01.620Z,83.57
2023-02-25T14:31:38.678Z,83.03
2023-02-25T14:34:30.305Z,82.53
2023-02-25T14:37:12.568Z,81.94
2023-02-25T14:39:50.466Z,79.64
2023-02-25T14:42:33.762Z,79.52
2023-02-25T14:45:07.853Z,79.04
2023-02-25T14:47:44.233Z,78.28
2023-02-25T14:50:23.298Z,79.01
2023-02-25T14:53:01.446Z,80.25
2023-02-25T14:55:54.159Z,81.18
2023-02-25T14:58:47.833Z,82.85
2023-02-25T15:01:45.789Z,83.60
2023-02-25T15:04:38.661Z,84.06
2023-02-25T15:07:21.914Z,84.83
2023-02-25T15:10:15.278Z,84.89
2023-02-25T15:12:54.724Z,85.22
2023-02-25T15:15:36.700Z,85.80
2023-02-25T15:19:00.751Z,86.10
2023-02-25T15:21:41.670Z,86.90
2023-02-25T15:24:12.890Z,87.78
2023-02-25T15:26:45.702Z,88.53
2023-02-25T15:29:50.491Z,89.33
2023-02-25T15:32:23.842Z,89.88
2023-02-25T15:35:00.977Z,90.39
2023-02-25T15:37:34.715Z,90.82
2023-02-25T15:40:24.666Z,91.22
2023-02-25T15:42:56.160Z,91.50
2023-02-25T15:45:37.190Z,91.81
2023-02-25T15:48:38.083Z,92.07
2023-02-25T15:51:11.602Z,92.11
2023-02-25T15:53:48.039Z,92.19
2023-02-25T15:56:28.475Z,92.15
2023-02-25T15:59:03.595Z,92.11
2023-02-25T16:01:43.645Z,91.75
2023-02-25T16:04:50.377Z,91.41
2023-02-25T16:07:21.656Z,91.45
2023-02-25T16:09:56.279Z,91.42
2023-02-25T16:12:26.586Z,91.59
2023-02-25T16:14:59.104Z,91.71
2023-02-25T16:17:31.728Z,91.77
2023-02-25T16:20:06.478Z,91.87
2023-02-25T16:22:36.302Z,92.01
2023-02-25T16:25:15.428Z,92.04
2023-02-25T16:27:53.960Z,91.98
2023-02-25T16:30:27.583Z,91.86
2023-02-25T16:33:01.148Z,91.74
2023-02-25T16:35:34.073Z,91.64
2023-02-25T16:38:07.914Z,91.45
2023-02-25T16:40:39.874Z,91.50
2023-02-25T16:43:15.574Z,91.45
2023-02-25T16:45:45.705Z,91.52
2023-02-25T16:48:18.039Z,91.37
2023-02-25T16:50:51.406Z,91.43
2023-02-25T16:53:24.279Z,91.21
2023-02-25T16:56:00.999Z,91.18
2023-02-25T16:58:33.460Z,91.12
2023-02-25T17:01:04.172Z,91.18
2023-02-25T17:03:43.139Z,91.27
2023-02-25T17:06:20.839Z,91.29
2023-02-25T17:08:53.519Z,91.16
2023-02-25T17:11:25.053Z,91.13
2023-02-25T17:13:56.579Z,91.07
2023-02-25T17:16:32.270Z,90.97
2023-02-25T17:19:04.325Z,91.11
2023-02-25T17:21:36.238Z,90.98
2023-02-25T17:24:08.955Z,91.02
2023-02-25T17:26:42.627Z,90.97
2023-02-25T17:29:12.982Z,91.07
2023-02-25T17:31:45.020Z,90.87
2023-02-25T17:34:14.681Z,90.85
2023-02-25T17:36:43.080Z,90.78
2023-02-25T17:39:14.288Z,90.91
2023-02-25T17:41:46.252Z,90.99
2023-02-25T17:44:45.143Z,90.92
2023-02-25T17:47:22.285Z,90.80
2023-02-25T17:49:51.237Z,90.75
2023-02-25T17:52:22.491Z,90.66
2023-02-25T17:54:57.361Z,90.38
2023-02-25T17:57:28.614Z,90.11
2023-02-25T18:00:00.834Z,89.80
2023-02-25T18:02:36.277Z,89.74
2023-02-25T18:05:25.312Z,89.37
2023-02-25T18:08:09.385Z,89.09
2023-02-25T18:11:01.410Z,88.79
2023-02-25T18:13:35.273Z,88.56
2023-02-25T18:16:30.451Z,88.01
2023-02-25T18:18:59.938Z,88.02
2023-02-25T18:21:28.669Z,87.93
2023-02-25T18:23:57.298Z,87.99
2023-02-25T18:26:27.137Z,87.95
2023-02-25T18:28:58.714Z,87.84
2023-02-25T18:31:27.262Z,87.61
2023-02-25T18:33:55.647Z,87.48
2023-02-25T18:36:26.360Z,87.08
2023-02-25T18:38:57.966Z,87.27
2023-02-25T18:41:26.808Z,87.03
2023-02-25T18:43:55.899Z,87.10
2023-02-25T18:46:27.883Z,87.15
2023-02-25T18:48:58.110Z,87.47
2023-02-25T18:51:27.300Z,87.54
2023-02-25T18:53:57.467Z,87.63
2023-02-25T18:56:26.700Z,87.82
2023-02-25T18:58:57.946Z,87.77
2023-02-25T19:01:30.419Z,87.92
2023-02-25T19:04:00.307Z,88.09
2023-02-25T19:06:31.149Z,88.18
2023-02-25T19:08:59.267Z,88.33
2023-02-25T19:11:31.011Z,88.62
2023-02-25T19:14:01.617Z,88.69
2023-02-25T19:16:36.122Z,88.69
2023-02-25T19:19:04.828Z,88.68
2023-02-25T19:21:34.103Z,88.93
2023-02-25T19:24:03.384Z,88.76
2023-02-25T19:26:32.000Z,88.68
2023-02-25T19:29:00.955Z,88.48
2023-02-25T19:31:30.166Z,88.43
2023-02-25T19:34:07.719Z,88.28
2023-02-25T19:36:36.096Z,88.09
2023-02-25T19:39:06.762Z,87.89
2023-02-25T19:41:36.061Z,87.79
2023-02-25T19:44:08.163Z,87.57
2023-02-25T19:46:36.042Z,87.39
2023-02-25T19:49:08.152Z,87.40
2023-02-25T19:51:36.830Z,87.30
2023-02-25T19:54:06.229Z,87.21
2023-02-25T19:56:34.425Z,87.22
2023-02-25T19:59:09.192Z,86.84
2023-02-25T20:01:37.790Z,86.62
2023-02-25T20:04:10.694Z,86.73
2023-02-25T20:06:39.551Z,86.58
2023-02-25T20:09:11.506Z,86.28
2023-02-25T20:11:40.011Z,86.35
2023-02-25T20:14:09.807Z,86.27
2023-02-25T20:16:40.119Z,86.33
2023-02-25T20:19:09.845Z,86.73
2023-02-25T20:21:38.306Z,86.50
2023-02-25T20:24:07.730Z,86.51
2023-02-25T20:26:36.856Z,86.59
2023-02-25T20:29:05.445Z,87.00
2023-02-25T20:31:34.025Z,87.17
2023-02-25T20:34:05.811Z,87.19
2023-02-25T20:36:40.784Z,87.33
2023-02-25T20:39:32.137Z,87.44
2023-02-25T20:42:03.787Z,87.58
2023-02-25T20:44:33.073Z,87.51
2023-02-25T20:47:06.858Z,87.65
2023-02-25T20:49:37.983Z,87.74
2023-02-25T20:52:08.584Z,87.62
2023-02-25T20:54:39.677Z,87.67
2023-02-25T20:57:09.086Z,87.57
2023-02-25T20:59:37.391Z,87.57
2023-02-25T21:02:05.783Z,87.50
2023-02-25T21:04:35.477Z,87.66
2023-02-25T21:07:05.082Z,87.92
2023-02-25T21:09:35.332Z,88.15
2023-02-25T21:12:04.799Z,88.27
2023-02-25T21:14:33.362Z,88.61
2023-02-25T21:17:03.874Z,88.92
2023-02-25T21:19:32.322Z,89.25
2023-02-25T21:22:03.616Z,89.62
2023-02-25T21:24:33.973Z,90.10
2023-02-25T21:27:06.160Z,90.42
2023-02-25T21:29:34.721Z,90.77
2023-02-25T21:32:03.739Z,91.12
2023-02-25T21:34:35.293Z,91.37
2023-02-25T21:37:04.489Z,91.61
2023-02-25T21:39:32.791Z,91.81
2023-02-25T21:42:05.500Z,92.03
2023-02-25T21:44:34.182Z,92.22
2023-02-25T21:47:03.598Z,92.37
2023-02-25T21:49:31.949Z,92.42
2023-02-25T21:52:00.708Z,92.55
2023-02-25T21:54:30.113Z,92.80
2023-02-25T21:57:00.968Z,92.93
2023-02-25T21:59:31.849Z,93.02
2023-02-25T22:02:00.401Z,93.19
2023-02-25T22:04:29.808Z,93.26
2023-02-25T22:06:58.188Z,93.37
2023-02-25T22:09:28.405Z,93.45
2023-02-25T22:11:57.575Z,93.59
2023-02-25T22:14:29.103Z,93.64
2023-02-25T22:17:02.184Z,93.76
2023-02-25T22:19:33.732Z,93.81
2023-02-25T22:22:01.795Z,93.88
2023-02-25T22:24:30.094Z,93.96
2023-02-25T22:26:58.384Z,93.98
2023-02-25T22:29:27.668Z,94.00
2023-02-25T22:31:56.439Z,94.09
2023-02-25T22:34:26.239Z,94.15
2023-02-25T22:36:54.741Z,94.24
2023-02-25T22:39:23.792Z,94.28
2023-02-25T22:41:51.852Z,94.32
2023-02-25T22:44:20.750Z,94.39
2023-02-25T22:46:49.348Z,94.44
2023-02-25T22:49:20.068Z,94.41
2023-02-25T22:51:50.406Z,94.39
2023-02-25T22:54:21.844Z,94.44
2023-02-25T22:56:51.837Z,94.42
2023-02-25T22:59:24.239Z,94.39
2023-02-25T23:01:52.352Z,94.44
2023-02-25T23:04:20.491Z,94.45
2023-02-25T23:06:54.171Z,94.46
2023-02-25T23:09:22.813Z,94.55
2023-02-25T23:11:53.610Z,94.60
2023-02-25T23:14:22.244Z,94.59
2023-02-25T23:16:50.534Z,94.68
2023-02-25T23:19:21.858Z,94.70
2023-02-25T23:21:51.475Z,94.69
2023-02-25T23:24:21.952Z,94.73
2023-02-25T23:26:58.406Z,94.69
2023-02-25T23:29:29.013Z,94.73
2023-02-25T23:32:01.800Z,94.73
2023-02-25T23:34:35.961Z,94.72
2023-02-25T23:37:07.315Z,94.76
2023-02-25T23:39:37.038Z,94.74
2023-02-25T23:42:08.920Z,94.70
2023-02-25T23:44:45.405Z,94.70
2023-02-25T23:47:17.014Z,94.72
2023-02-25T23:49:45.731Z,94.65
2023-02-25T23:52:17.622Z,94.57
2023-02-25T23:54:47.027Z,94.56
2023-02-25T23:57:16.410Z,94.56
2023-02-25T23:59:48.080Z,94.53
